createdAt,value
2023-03-22T00:01:57.231Z,7.35
2023-03-22T00:04:27.154Z,7.41
2023-03-22T00:06:58.018Z,7.48
2023-03-22T00:09:27.489Z,7.47
2023-03-22T00:11:57.147Z,7.46
2023-03-22T00:14:26.646Z,7.49
2023-03-22T00:16:55.993Z,7.50
2023-03-22T00:19:26.504Z,7.55
2023-03-22T00:21:57.325Z,7.59
2023-03-22T00:24:26.683Z,7.54
2023-03-22T00:26:56.714Z,7.55
2023-03-22T00:29:26.094Z,7.59
2023-03-22T00:31:56.349Z,7.59
2023-03-22T00:34:27.318Z,7.60
2023-03-22T00:36:58.028Z,7.60
2023-03-22T00:39:28.309Z,7.61
2023-03-22T00:41:57.732Z,7.59
2023-03-22T00:44:27.130Z,7.59
2023-03-22T00:50:19.718Z,7.53
2023-03-22T00:52:49.114Z,7.52
2023-03-22T00:55:18.750Z,7.49
2023-03-22T00:57:48.300Z,7.49
2023-03-22T01:00:19.010Z,7.47
2023-03-22T01:02:48.515Z,7.50
2023-03-22T01:05:22.185Z,7.51
2023-03-22T01:07:52.274Z,7.47
2023-03-22T01:10:22.136Z,7.46
2023-03-22T01:12:51.880Z,7.50
2023-03-22T01:15:22.833Z,7.55
2023-03-22T01:17:52.813Z,7.56
2023-03-22T01:20:23.808Z,7.53
2023-03-22T01:22:53.344Z,7.45
2023-03-22T01:25:23.116Z,7.47
2023-03-22T01:27:52.610Z,7.51
2023-03-22T01:30:22.348Z,7.43
2023-03-22T01:32:51.740Z,7.39
2023-03-22T01:35:23.009Z,7.44
2023-03-22T01:37:52.648Z,7.49
2023-03-22T01:40:22.407Z,7.49
2023-03-22T01:42:51.790Z,7.48
2023-03-22T01:45:42.372Z,7.46
2023-03-22T01:48:23.483Z,7.44
2023-03-22T01:51:05.233Z,7.37
2023-03-22T01:53:38.619Z,7.33
2023-03-22T01:56:09.394Z,7.29
2023-03-22T01:58:40.397Z,7.26
2023-03-22T02:01:12.286Z,7.26
2023-03-22T02:03:50.284Z,7.26
2023-03-22T02:06:22.371Z,7.28
2023-03-22T02:08:53.209Z,7.27
2023-03-22T02:11:32.577Z,7.30
2023-03-22T02:14:27.370Z,7.32
2023-03-22T02:17:23.876Z,7.31
2023-03-22T02:20:55.443Z,7.28
2023-03-22T02:24:23.782Z,7.30
2023-03-22T02:27:37.722Z,7.31
2023-03-22T02:30:39.260Z,7.22
2023-03-22T02:33:51.989Z,7.21
2023-03-22T02:37:08.793Z,7.17
2023-03-22T02:39:51.487Z,7.18
2023-03-22T02:42:41.657Z,7.17
2023-03-22T02:45:17.972Z,7.08
2023-03-22T02:48:00.833Z,7.04
2023-03-22T02:50:32.277Z,7.02
2023-03-22T02:53:08.832Z,7.04
2023-03-22T02:55:45.848Z,7.07
2023-03-22T02:58:21.551Z,7.09
2023-03-22T03:00:57.040Z,7.11
2023-03-22T03:03:30.788Z,7.05
2023-03-22T03:06:04.627Z,7.00
2023-03-22T03:08:34.647Z,7.00
2023-03-22T03:11:05.731Z,7.02
2023-03-22T03:13:35.330Z,7.03
2023-03-22T03:16:08.085Z,7.08
2023-03-22T03:18:46.135Z,7.07
2023-03-22T03:21:32.926Z,7.03
2023-03-22T03:24:17.173Z,6.97
2023-03-22T03:26:57.803Z,6.94
2023-03-22T03:29:35.475Z,6.97
2023-03-22T03:32:09.756Z,7.03
2023-03-22T03:34:45.693Z,7.00
2023-03-22T03:37:20.087Z,6.95
2023-03-22T03:39:57.828Z,6.91
2023-03-22T03:42:31.600Z,6.89
2023-03-22T03:45:01.929Z,6.90
2023-03-22T03:47:31.834Z,6.88
2023-03-22T03:51:19.676Z,6.84
2023-03-22T03:53:49.148Z,6.82
2023-03-22T03:56:18.533Z,6.83
2023-03-22T03:58:48.086Z,6.85
2023-03-22T04:01:19.890Z,6.85
2023-03-22T04:03:50.915Z,6.88
2023-03-22T04:06:21.666Z,6.86
2023-03-22T04:08:53.972Z,6.84
2023-03-22T04:11:23.581Z,6.85
2023-03-22T04:13:53.050Z,6.87
2023-03-22T04:16:22.432Z,6.83
2023-03-22T04:18:51.952Z,6.78
2023-03-22T04:21:23.154Z,6.78
2023-03-22T04:23:52.514Z,6.80
2023-03-22T04:26:21.837Z,6.81
2023-03-22T04:28:51.298Z,6.81
2023-03-22T04:31:20.800Z,6.84
2023-03-22T04:33:55.143Z,6.80
2023-03-22T04:36:31.450Z,6.78
2023-03-22T04:39:00.894Z,6.81
2023-03-22T04:41:30.393Z,6.81
2023-03-22T04:44:03.681Z,6.77
2023-03-22T04:46:34.622Z,6.67
2023-03-22T04:49:04.636Z,6.66
2023-03-22T04:51:35.603Z,6.69
2023-03-22T04:54:05.085Z,6.67
2023-03-22T04:56:34.414Z,6.71
2023-03-22T04:59:03.958Z,6.79
2023-03-22T05:01:35.011Z,6.83
2023-03-22T05:04:04.636Z,6.78
2023-03-22T05:06:35.621Z,6.76
2023-03-22T05:09:05.219Z,6.73
2023-03-22T05:11:34.616Z,6.69
2023-03-22T05:14:04.824Z,6.70
2023-03-22T05:16:34.507Z,6.66
2023-03-22T05:19:04.002Z,6.59
2023-03-22T05:21:37.092Z,6.62
2023-03-22T05:24:07.464Z,6.69
2023-03-22T05:26:38.270Z,6.74
2023-03-22T05:29:07.656Z,6.74
2023-03-22T05:31:38.681Z,6.66
2023-03-22T05:34:08.298Z,6.57
2023-03-22T05:36:39.300Z,6.53
2023-03-22T05:39:09.107Z,6.57
2023-03-22T05:41:38.480Z,6.59
2023-03-22T05:44:08.429Z,6.65
2023-03-22T05:46:37.893Z,6.71
2023-03-22T05:49:07.277Z,6.73
2023-03-22T05:51:41.931Z,6.74
2023-03-22T05:54:12.024Z,6.75
2023-03-22T05:56:41.374Z,6.78
2023-03-22T05:59:10.774Z,6.76
2023-03-22T06:01:41.264Z,6.82
2023-03-22T06:04:10.821Z,6.87
2023-03-22T06:06:42.134Z,6.88
2023-03-22T06:09:17.259Z,6.81
2023-03-22T06:11:47.301Z,6.74
2023-03-22T06:14:17.169Z,6.71
2023-03-22T06:16:46.559Z,6.77
2023-03-22T06:19:16.121Z,6.80
2023-03-22T06:21:46.919Z,6.88
2023-03-22T06:24:16.398Z,6.96
2023-03-22T06:26:45.813Z,6.97
2023-03-22T06:29:15.731Z,6.96
2023-03-22T06:31:45.007Z,7.03
2023-03-22T06:34:14.289Z,7.08
2023-03-22T06:36:43.723Z,7.09
2023-03-22T06:39:14.532Z,7.02
2023-03-22T06:41:43.752Z,7.02
2023-03-22T06:44:13.308Z,7.04
2023-03-22T06:46:42.646Z,7.06
2023-03-22T06:51:19.450Z,7.11
2023-03-22T06:53:48.890Z,7.14
2023-03-22T06:56:18.304Z,7.22
2023-03-22T06:58:47.972Z,7.20
2023-03-22T07:01:17.831Z,7.18
2023-03-22T07:03:47.431Z,7.20
2023-03-22T07:06:19.688Z,7.30
2023-03-22T07:08:50.800Z,7.38
2023-03-22T07:11:22.500Z,7.43
2023-03-22T07:13:51.940Z,7.48
2023-03-22T07:16:22.013Z,7.53
2023-03-22T07:18:51.294Z,7.59
2023-03-22T07:21:22.167Z,7.60
2023-03-22T07:23:51.488Z,7.63
2023-03-22T07:26:20.949Z,7.66
2023-03-22T07:28:50.347Z,7.60
2023-03-22T07:31:19.957Z,7.66
2023-03-22T07:33:49.913Z,7.60
2023-03-22T07:36:24.069Z,7.52
2023-03-22T07:38:53.581Z,7.58
2023-03-22T07:41:24.253Z,7.63
2023-03-22T07:44:02.232Z,7.69
2023-03-22T07:46:37.692Z,7.70
2023-03-22T07:49:07.115Z,7.69
2023-03-22T07:51:37.956Z,7.76
2023-03-22T07:54:07.882Z,7.78
2023-03-22T07:56:37.419Z,7.80
2023-03-22T07:59:06.918Z,7.87
2023-03-22T08:01:36.400Z,7.92
2023-03-22T08:04:05.746Z,7.98
2023-03-22T08:06:37.217Z,7.90
2023-03-22T08:09:08.595Z,7.95
2023-03-22T08:11:38.132Z,8.06
2023-03-22T08:14:07.560Z,8.11
2023-03-22T08:16:38.702Z,8.14
2023-03-22T08:19:09.817Z,8.14
2023-03-22T08:21:41.078Z,8.10
2023-03-22T08:24:10.998Z,8.09
2023-03-22T08:26:40.831Z,8.13
2023-03-22T08:29:10.139Z,8.18
2023-03-22T08:31:39.611Z,8.21
2023-03-22T08:34:08.997Z,8.22
2023-03-22T08:36:41.208Z,8.23
2023-03-22T08:39:10.792Z,8.30
2023-03-22T08:41:41.284Z,8.28
2023-03-22T08:44:11.319Z,8.30
2023-03-22T08:46:40.840Z,8.33
2023-03-22T08:49:10.676Z,8.32
2023-03-22T08:51:42.030Z,8.40
2023-03-22T08:54:11.991Z,8.49
2023-03-22T08:56:42.026Z,8.60
2023-03-22T08:59:12.217Z,8.73
2023-03-22T09:01:41.844Z,8.79
2023-03-22T09:04:11.505Z,8.83
2023-03-22T09:06:45.505Z,8.73
2023-03-22T09:09:15.450Z,8.74
2023-03-22T09:11:45.010Z,8.77
2023-03-22T09:14:14.464Z,8.82
2023-03-22T09:16:43.807Z,8.92
2023-03-22T09:19:13.388Z,8.91
2023-03-22T09:21:44.355Z,8.88
2023-03-22T09:24:14.050Z,8.86
2023-03-22T09:26:43.377Z,8.87
2023-03-22T09:29:13.209Z,8.84
2023-03-22T09:31:43.658Z,8.93
2023-03-22T09:34:13.052Z,9.17
2023-03-22T09:36:43.808Z,9.33
2023-03-22T09:39:13.229Z,9.35
2023-03-22T09:41:48.067Z,9.15
2023-03-22T09:44:24.278Z,9.10
2023-03-22T09:47:00.218Z,9.11
2023-03-22T09:51:34.346Z,9.21
2023-03-22T09:54:04.676Z,9.38
2023-03-22T09:56:35.380Z,9.49
2023-03-22T09:59:13.653Z,9.54
2023-03-22T10:01:52.561Z,9.65
2023-03-22T10:04:42.586Z,9.54
2023-03-22T10:07:27.517Z,9.56
2023-03-22T10:10:18.119Z,9.51
2023-03-22T10:12:57.854Z,9.54
2023-03-22T10:15:33.992Z,9.46
2023-03-22T10:18:08.380Z,9.34
2023-03-22T10:20:45.888Z,9.17
2023-03-22T10:23:21.795Z,9.15
2023-03-22T10:25:53.186Z,9.16
2023-03-22T10:28:26.883Z,9.12
2023-03-22T10:30:59.129Z,9.08
2023-03-22T10:33:40.477Z,9.06
2023-03-22T10:36:14.969Z,8.99
2023-03-22T10:38:50.720Z,8.96
2023-03-22T10:41:23.553Z,8.91
2023-03-22T10:43:56.715Z,8.90
2023-03-22T10:46:30.502Z,8.87
2023-03-22T10:49:03.957Z,8.86
2023-03-22T10:51:40.412Z,8.78
2023-03-22T10:54:17.522Z,8.65
2023-03-22T10:56:46.831Z,8.64
2023-03-22T10:59:51.431Z,8.62
2023-03-22T11:02:25.026Z,8.58
2023-03-22T11:04:57.413Z,8.60
2023-03-22T11:07:35.017Z,8.59
2023-03-22T11:10:24.658Z,8.56
2023-03-22T11:13:00.817Z,8.54
2023-03-22T11:15:32.936Z,8.61
2023-03-22T11:18:12.295Z,8.62
2023-03-22T11:20:44.455Z,8.57
2023-03-22T11:23:18.324Z,8.51
2023-03-22T11:25:52.291Z,8.49
2023-03-22T11:28:23.808Z,8.39
2023-03-22T11:31:08.611Z,8.36
2023-03-22T11:33:39.934Z,8.27
2023-03-22T11:36:20.030Z,8.24
2023-03-22T11:38:49.690Z,8.20
2023-03-22T11:41:27.593Z,8.21
2023-03-22T11:43:59.591Z,8.21
2023-03-22T11:46:29.395Z,8.21
2023-03-22T11:49:06.175Z,8.15
2023-03-22T11:51:39.251Z,8.09
2023-03-22T11:54:12.200Z,8.07
2023-03-22T11:56:47.056Z,8.11
2023-03-22T11:59:22.832Z,8.11
2023-03-22T12:01:59.130Z,8.12
2023-03-22T12:04:33.159Z,8.12
2023-03-22T12:07:07.131Z,8.12
2023-03-22T12:09:44.806Z,8.16
2023-03-22T12:12:21.406Z,8.17
2023-03-22T12:14:56.333Z,8.24
2023-03-22T12:17:33.870Z,8.32
2023-03-22T12:20:13.941Z,8.38
2023-03-22T12:22:51.332Z,8.41
2023-03-22T12:25:24.943Z,8.47
2023-03-22T12:27:59.754Z,8.43
2023-03-22T12:30:35.709Z,8.45
2023-03-22T12:33:12.322Z,8.47
2023-03-22T12:35:47.028Z,8.51
2023-03-22T12:38:28.275Z,8.47
2023-03-22T12:41:03.865Z,8.43
2023-03-22T12:43:47.083Z,8.45
2023-03-22T12:46:22.342Z,8.46
2023-03-22T12:51:19.258Z,8.53
2023-03-22T12:53:52.720Z,8.53
2023-03-22T12:56:26.354Z,8.54
2023-03-22T12:58:59.138Z,8.54
2023-03-22T13:01:38.569Z,8.54
2023-03-22T13:04:32.074Z,8.59
2023-03-22T13:07:17.308Z,8.66
2023-03-22T13:09:48.899Z,8.63
2023-03-22T13:13:13.595Z,8.65
2023-03-22T13:16:00.470Z,8.84
2023-03-22T13:19:00.250Z,8.97
2023-03-22T13:21:33.634Z,9.09
2023-03-22T13:24:25.862Z,9.18
2023-03-22T13:26:57.070Z,9.19
2023-03-22T13:29:36.685Z,9.15
2023-03-22T13:32:09.257Z,9.13
2023-03-22T13:34:41.171Z,9.13
2023-03-22T13:37:30.478Z,9.12
2023-03-22T13:40:02.501Z,9.13
2023-03-22T13:42:38.349Z,9.17
2023-03-22T13:45:31.770Z,9.17
2023-03-22T13:48:07.840Z,9.22
2023-03-22T13:50:39.092Z,9.28
2023-03-22T13:53:16.972Z,9.23
2023-03-22T13:56:03.507Z,9.27
2023-03-22T13:58:49.831Z,9.27
2023-03-22T14:01:29.454Z,9.26
2023-03-22T14:04:03.567Z,9.18
2023-03-22T14:06:36.868Z,9.10
2023-03-22T14:09:17.751Z,9.05
2023-03-22T14:11:56.503Z,9.04
2023-03-22T14:14:32.952Z,8.99
2023-03-22T14:17:09.675Z,8.99
2023-03-22T14:19:39.308Z,8.86
